Terminal Aerodrome Forecast
Issued by NWS

Home | Current Version | Previous Version | Text Only | Print | Product List | Glossary On
Versions: 1 2 3 4 5 6 7 8 9 10 11 12 13
000
FTUS44 KEPZ 051120
TAFLRU
TAF
KLRU 051120Z 0512/0612 26006KT P6SM SKC
     FM051900 26017G27KT P6SM SCT250
     FM060300 26012KT P6SM SCT250=

USA.gov is the U.S. government's official web portal to all federal, state and local government web resources and services.